Terminal Aerodrome Forecast
Issued by NWS

Home | Current Version | Previous Version | Graphics & Text | Print | Product List | Glossary On
Versions: 1 2 3 4 5 6 7 8 9 10 11 12 13
738
FTUS43 KMPX 252334
TAFRWF
TAF
KRWF 252334Z 2600/2624 30008KT P6SM BKN090
     FM260700 32005KT P6SM SKC
     FM261600 34007KT P6SM FEW050=

USA.gov is the U.S. government's official web portal to all federal, state and local government web resources and services.